createdAt,value
2019-01-27T00:01:24.091Z,364.47
2019-01-27T00:03:53.547Z,346.93
2019-01-27T00:06:23.009Z,343.95
2019-01-27T00:08:52.426Z,315.73
2019-01-27T00:11:21.868Z,316.12
2019-01-27T00:13:51.330Z,300.60
2019-01-27T00:16:20.986Z,361.90
2019-01-27T00:18:50.433Z,352.62
2019-01-27T00:21:19.907Z,339.77
2019-01-27T00:23:49.342Z,304.85
2019-01-27T00:26:19.195Z,289.70
2019-01-27T00:28:48.711Z,295.97
2019-01-27T00:31:18.187Z,275.05
2019-01-27T00:33:47.658Z,285.38
2019-01-27T00:36:17.085Z,281.43
2019-01-27T00:38:46.589Z,290.38
2019-01-27T00:41:16.020Z,269.43
2019-01-27T00:43:45.630Z,309.15
2019-01-27T00:46:15.146Z,293.50
2019-01-27T00:48:44.722Z,338.02
2019-01-27T00:51:14.218Z,265.92
2019-01-27T00:53:43.646Z,281.57
2019-01-27T00:56:13.103Z,274.15
2019-01-27T00:58:42.523Z,335.43
2019-01-27T01:01:12.386Z,362.05
2019-01-27T01:03:41.919Z,355.80
2019-01-27T01:06:11.676Z,287.33
2019-01-27T01:08:42.426Z,334.25
2019-01-27T01:11:11.919Z,293.35
2019-01-27T01:13:41.418Z,264.68
2019-01-27T01:16:11.154Z,271.62
2019-01-27T01:18:40.588Z,313.18
2019-01-27T01:21:10.108Z,272.23
2019-01-27T01:23:39.526Z,280.60
2019-01-27T01:26:09.039Z,304.77
2019-01-27T01:28:38.489Z,351.52
2019-01-27T01:31:07.933Z,364.30
2019-01-27T01:33:37.431Z,316.33
2019-01-27T01:36:07.283Z,274.75
2019-01-27T01:38:36.742Z,260.32
2019-01-27T01:41:06.984Z,272.35
2019-01-27T01:43:36.697Z,264.60
2019-01-27T01:46:06.281Z,273.00
2019-01-27T01:48:35.752Z,260.73
2019-01-27T01:51:05.336Z,266.93
2019-01-27T01:53:34.795Z,267.35
2019-01-27T01:56:04.757Z,262.02
2019-01-27T01:58:34.336Z,261.90
2019-01-27T02:01:04.114Z,257.80
2019-01-27T02:03:33.560Z,265.32
2019-01-27T02:06:03.030Z,263.95
2019-01-27T02:08:32.741Z,265.95
2019-01-27T02:11:02.288Z,262.35
2019-01-27T02:13:31.747Z,264.82
2019-01-27T02:16:06.538Z,264.32
2019-01-27T02:18:37.069Z,257.48
2019-01-27T02:21:07.822Z,275.05
2019-01-27T02:23:37.412Z,273.48
2019-01-27T02:26:07.805Z,270.02
2019-01-27T02:28:37.367Z,274.10
2019-01-27T02:31:06.961Z,256.55
2019-01-27T02:33:36.387Z,278.67
2019-01-27T02:36:06.308Z,272.63
2019-01-27T02:38:36.025Z,268.48
2019-01-27T02:41:06.351Z,270.70
2019-01-27T02:43:35.781Z,253.65
2019-01-27T02:46:05.939Z,257.07
2019-01-27T02:48:35.368Z,251.00
2019-01-27T02:51:05.208Z,242.37
2019-01-27T02:53:34.622Z,242.27
2019-01-27T02:56:04.885Z,234.40
2019-01-27T02:58:34.331Z,244.47
2019-01-27T03:01:04.017Z,246.13
2019-01-27T03:03:33.489Z,244.75
2019-01-27T03:06:20.577Z,233.93
2019-01-27T03:08:56.523Z,234.07
2019-01-27T03:11:26.326Z,234.75
2019-01-27T03:13:55.806Z,235.80
2019-01-27T03:16:25.240Z,231.02
2019-01-27T03:18:55.070Z,232.60
2019-01-27T03:21:24.547Z,229.40
2019-01-27T03:23:54.007Z,230.80
2019-01-27T03:26:23.523Z,232.83
2019-01-27T03:28:52.984Z,226.95
2019-01-27T03:31:22.417Z,220.27
2019-01-27T03:33:51.873Z,224.80
2019-01-27T03:36:21.368Z,213.15
2019-01-27T03:38:50.798Z,229.90
2019-01-27T03:41:20.285Z,215.10
2019-01-27T03:43:50.099Z,222.15
2019-01-27T03:46:19.542Z,204.97
2019-01-27T03:48:48.996Z,213.35
2019-01-27T03:51:18.581Z,210.70
2019-01-27T03:53:48.008Z,208.23
2019-01-27T03:56:17.443Z,217.50
2019-01-27T03:58:46.869Z,210.28
2019-01-27T04:01:16.358Z,225.00
2019-01-27T04:03:45.792Z,217.03
2019-01-27T04:06:15.236Z,221.87
2019-01-27T04:08:45.046Z,214.68
2019-01-27T04:11:14.517Z,211.28
2019-01-27T04:13:43.967Z,210.40
2019-01-27T04:16:13.459Z,204.72
2019-01-27T04:18:43.255Z,210.93
2019-01-27T04:21:12.752Z,215.32
2019-01-27T04:23:42.376Z,212.05
2019-01-27T04:26:11.862Z,217.55
2019-01-27T04:28:41.298Z,209.45
2019-01-27T04:31:10.766Z,209.90
2019-01-27T04:33:40.224Z,202.70
2019-01-27T04:36:09.672Z,212.40
2019-01-27T04:38:39.172Z,205.12
2019-01-27T04:41:08.660Z,211.03
2019-01-27T04:43:38.198Z,201.32
2019-01-27T04:46:07.684Z,197.02
2019-01-27T04:48:37.135Z,216.70
2019-01-27T04:51:06.891Z,202.97
2019-01-27T04:53:36.338Z,204.23
2019-01-27T04:56:05.769Z,196.40
2019-01-27T04:58:35.643Z,212.23
2019-01-27T05:01:05.716Z,197.23
2019-01-27T05:03:52.732Z,207.43
2019-01-27T05:06:22.235Z,206.60
2019-01-27T05:08:51.725Z,206.20
2019-01-27T05:11:21.149Z,217.32
2019-01-27T05:13:50.604Z,203.55
2019-01-27T05:16:20.575Z,209.70
2019-01-27T05:18:49.991Z,189.28
2019-01-27T05:21:19.511Z,193.07
2019-01-27T05:23:49.048Z,191.40
2019-01-27T05:26:18.477Z,206.97
2019-01-27T05:28:47.954Z,204.35
2019-01-27T05:31:17.405Z,197.68
2019-01-27T05:33:46.879Z,199.83
2019-01-27T05:36:16.524Z,200.68
2019-01-27T05:38:45.981Z,205.87
2019-01-27T05:41:15.436Z,192.10
2019-01-27T05:43:45.042Z,197.78
2019-01-27T05:46:14.501Z,208.40
2019-01-27T05:48:44.284Z,209.87
2019-01-27T05:51:13.905Z,200.72
2019-01-27T05:53:43.436Z,212.85
2019-01-27T05:56:12.912Z,206.32
2019-01-27T05:58:42.351Z,207.70
2019-01-27T06:01:11.760Z,207.83
2019-01-27T06:03:41.202Z,226.80
2019-01-27T06:06:10.662Z,220.10
2019-01-27T06:08:40.080Z,229.55
2019-01-27T06:11:09.789Z,231.75
2019-01-27T06:13:39.339Z,223.95
2019-01-27T06:16:08.781Z,219.37
2019-01-27T06:18:38.202Z,237.78
2019-01-27T06:21:07.658Z,232.77
2019-01-27T06:23:37.354Z,238.55
2019-01-27T06:26:06.700Z,250.22
2019-01-27T06:28:36.672Z,273.38
2019-01-27T06:31:06.087Z,246.45
2019-01-27T06:33:43.193Z,260.00
2019-01-27T06:36:12.640Z,260.05
2019-01-27T06:38:42.243Z,261.12
2019-01-27T06:41:11.856Z,277.68
2019-01-27T06:43:41.497Z,285.82
2019-01-27T06:46:10.997Z,269.40
2019-01-27T06:48:40.453Z,274.50
2019-01-27T06:51:09.887Z,299.98
2019-01-27T06:53:39.352Z,296.80
2019-01-27T06:56:08.846Z,289.23
2019-01-27T06:58:55.787Z,301.17
2019-01-27T07:01:40.241Z,301.25
2019-01-27T07:04:31.546Z,276.73
2019-01-27T07:07:19.949Z,267.23
2019-01-27T07:10:14.530Z,284.52
2019-01-27T07:13:00.485Z,278.92
2019-01-27T07:15:54.961Z,325.57
2019-01-27T07:18:40.141Z,245.60
2019-01-27T07:21:28.686Z,272.90
2019-01-27T07:24:25.994Z,302.73
2019-01-27T07:27:17.413Z,338.20
2019-01-27T07:30:23.974Z,291.85
2019-01-27T07:33:04.878Z,300.90
2019-01-27T07:35:45.327Z,287.50
2019-01-27T07:38:36.751Z,288.98
2019-01-27T07:41:31.323Z,286.10
2019-01-27T07:44:23.000Z,253.32
2019-01-27T07:47:26.691Z,257.75
2019-01-27T07:50:07.618Z,321.20
2019-01-27T07:52:56.032Z,298.65
2019-01-27T07:56:00.285Z,277.18
2019-01-27T07:58:37.917Z,275.55
2019-01-27T08:01:25.078Z,249.30
2019-01-27T08:04:25.515Z,268.95
2019-01-27T08:07:13.936Z,267.18
2019-01-27T08:10:02.368Z,257.00
2019-01-27T08:12:50.741Z,268.45
2019-01-27T08:15:45.507Z,290.77
2019-01-27T08:18:26.678Z,263.57
2019-01-27T08:21:30.416Z,259.55
2019-01-27T08:24:27.578Z,268.50
2019-01-27T08:27:16.225Z,256.07
2019-01-27T08:30:13.801Z,246.68
2019-01-27T08:33:08.091Z,232.32
2019-01-27T08:35:55.232Z,274.42
2019-01-27T08:38:46.376Z,256.50
2019-01-27T08:41:50.044Z,247.67
2019-01-27T08:44:41.424Z,243.05
2019-01-27T08:47:11.136Z,231.83
2019-01-27T08:49:40.743Z,248.82
2019-01-27T08:52:10.544Z,229.60
2019-01-27T08:54:40.042Z,235.10
2019-01-27T08:57:09.516Z,245.37
2019-01-27T08:59:39.093Z,240.00
2019-01-27T09:02:16.983Z,236.32
2019-01-27T09:05:14.496Z,246.47
2019-01-27T09:08:18.028Z,236.43
2019-01-27T09:11:09.377Z,248.38
2019-01-27T09:13:56.611Z,243.35
2019-01-27T09:16:45.005Z,232.35
2019-01-27T09:19:45.543Z,246.00
2019-01-27T09:22:24.806Z,238.35
2019-01-27T09:25:15.959Z,248.35
2019-01-27T09:28:10.408Z,240.52
2019-01-27T09:31:04.825Z,260.73
2019-01-27T09:33:59.161Z,278.25
2019-01-27T09:36:41.672Z,288.25
2019-01-27T09:39:21.549Z,278.32
2019-01-27T09:42:15.935Z,248.87
2019-01-27T09:44:58.006Z,274.90
2019-01-27T09:47:36.450Z,269.40
2019-01-27T09:50:38.189Z,267.45
2019-01-27T09:53:17.601Z,258.57
2019-01-27T09:56:04.680Z,256.43
2019-01-27T09:58:51.860Z,248.35
2019-01-27T10:01:40.428Z,277.43
2019-01-27T10:04:32.113Z,253.90
2019-01-27T10:07:20.909Z,269.77
2019-01-27T10:10:05.153Z,272.75
2019-01-27T10:12:40.794Z,279.75
2019-01-27T10:15:30.954Z,277.22
2019-01-27T10:18:19.349Z,293.82
2019-01-27T10:20:58.444Z,292.30
2019-01-27T10:23:33.586Z,287.70
2019-01-27T10:26:40.096Z,289.98
2019-01-27T10:29:37.314Z,297.10
2019-01-27T10:32:25.430Z,291.65
2019-01-27T10:35:18.008Z,307.02
2019-01-27T10:38:05.225Z,308.50
2019-01-27T10:40:41.558Z,298.18
2019-01-27T10:43:33.069Z,294.60
2019-01-27T10:46:12.300Z,317.20
2019-01-27T10:48:56.582Z,316.20
2019-01-27T10:51:35.188Z,322.05
2019-01-27T10:54:33.009Z,322.50
2019-01-27T10:57:19.993Z,335.65
2019-01-27T11:00:14.590Z,312.02
2019-01-27T11:03:09.017Z,332.65
2019-01-27T11:05:57.398Z,321.95
2019-01-27T11:08:43.479Z,319.87
2019-01-27T11:11:35.108Z,329.77
2019-01-27T11:14:22.628Z,322.15
2019-01-27T11:17:23.348Z,352.77
2019-01-27T11:20:11.797Z,345.45
2019-01-27T11:23:09.236Z,294.90
2019-01-27T11:26:01.873Z,339.33
2019-01-27T11:29:02.520Z,341.70
2019-01-27T11:31:50.975Z,333.40
2019-01-27T11:34:38.215Z,315.85
2019-01-27T11:37:25.353Z,315.68
2019-01-27T11:40:29.117Z,324.25
2019-01-27T11:43:20.883Z,329.85
2019-01-27T11:46:01.687Z,323.40
2019-01-27T11:48:49.804Z,325.43
2019-01-27T11:51:26.054Z,326.05
2019-01-27T11:53:55.529Z,326.42
2019-01-27T11:56:25.079Z,313.27
2019-01-27T11:58:54.498Z,322.48
2019-01-27T12:01:24.145Z,334.02
2019-01-27T12:03:53.727Z,332.00
2019-01-27T12:06:23.191Z,333.13
2019-01-27T12:08:52.647Z,326.17
2019-01-27T12:11:22.143Z,330.65
2019-01-27T12:13:51.636Z,348.45
2019-01-27T12:16:21.086Z,339.20
2019-01-27T12:18:50.548Z,346.73
2019-01-27T12:21:19.993Z,450.62
2019-01-27T12:23:49.441Z,335.60
2019-01-27T12:26:19.427Z,357.05
2019-01-27T12:28:48.916Z,322.63
2019-01-27T12:31:18.460Z,742.92
2019-01-27T12:33:48.015Z,320.70
2019-01-27T12:36:18.941Z,431.23
2019-01-27T12:38:48.599Z,316.75
2019-01-27T12:41:18.026Z,428.85
2019-01-27T12:43:47.530Z,435.80
2019-01-27T12:46:16.980Z,309.35
2019-01-27T12:48:46.447Z,419.58
2019-01-27T12:51:16.327Z,313.65
2019-01-27T12:53:45.779Z,287.77
2019-01-27T12:56:15.225Z,305.52
2019-01-27T12:58:44.663Z,337.70
2019-01-27T13:01:14.448Z,351.00
2019-01-27T13:03:43.953Z,316.23
2019-01-27T13:06:13.362Z,328.90
2019-01-27T13:08:42.810Z,296.82
2019-01-27T13:11:12.293Z,293.75
2019-01-27T13:13:42.053Z,450.70
2019-01-27T13:16:11.494Z,426.22
2019-01-27T13:18:40.966Z,386.65
2019-01-27T13:21:10.403Z,272.40
2019-01-27T13:23:39.874Z,319.25
2019-01-27T13:26:09.337Z,265.37
2019-01-27T13:28:38.768Z,257.07
2019-01-27T13:31:08.258Z,405.70
2019-01-27T13:33:37.692Z,370.07
2019-01-27T13:36:07.693Z,475.72
2019-01-27T13:38:37.135Z,281.68
2019-01-27T13:41:06.597Z,376.82
2019-01-27T13:43:36.027Z,339.52
2019-01-27T13:46:05.895Z,312.68
2019-01-27T13:48:35.506Z,380.77
2019-01-27T13:51:05.099Z,234.22
2019-01-27T13:53:34.619Z,202.95
2019-01-27T13:56:04.765Z,226.53
2019-01-27T13:58:34.224Z,252.87
2019-01-27T14:01:03.792Z,216.50
2019-01-27T14:03:33.279Z,204.37
2019-01-27T14:06:02.690Z,218.45
2019-01-27T14:08:32.175Z,256.15
2019-01-27T14:11:01.688Z,237.02
2019-01-27T14:13:32.017Z,286.30
2019-01-27T14:16:01.628Z,496.00
2019-01-27T14:18:31.121Z,191.88
2019-01-27T14:21:00.560Z,685.52
2019-01-27T14:23:30.143Z,501.52
2019-01-27T14:25:59.576Z,190.40
2019-01-27T14:28:29.112Z,601.87
2019-01-27T14:30:58.677Z,378.52
2019-01-27T14:33:28.319Z,244.03
2019-01-27T14:35:58.037Z,159.65
2019-01-27T14:38:27.532Z,178.10
2019-01-27T14:40:57.354Z,166.07
2019-01-27T14:43:26.842Z,146.20
2019-01-27T14:45:56.394Z,167.53
2019-01-27T14:48:25.943Z,154.00
2019-01-27T14:50:55.365Z,142.85
2019-01-27T14:53:26.306Z,142.75
2019-01-27T14:55:56.047Z,131.27
2019-01-27T14:58:25.521Z,138.30
2019-01-27T15:00:55.044Z,126.65
2019-01-27T15:03:24.626Z,163.35
2019-01-27T15:05:54.117Z,126.27
2019-01-27T15:08:23.557Z,144.87
2019-01-27T15:10:53.230Z,144.77
2019-01-27T15:13:22.706Z,130.50
2019-01-27T15:15:52.164Z,138.52
2019-01-27T15:18:21.621Z,121.87
2019-01-27T15:20:54.318Z,108.37
2019-01-27T15:23:24.279Z,112.28
2019-01-27T15:25:53.896Z,107.40
2019-01-27T15:28:23.385Z,118.07
2019-01-27T15:30:52.883Z,119.25
2019-01-27T15:33:22.354Z,105.87
2019-01-27T15:35:51.805Z,125.20
2019-01-27T15:38:21.377Z,114.40
2019-01-27T15:40:50.893Z,99.67
2019-01-27T15:43:20.527Z,103.95
2019-01-27T15:45:50.059Z,117.45
2019-01-27T15:48:19.525Z,331.13
2019-01-27T15:50:49.001Z,113.75
2019-01-27T15:53:18.429Z,273.50
2019-01-27T15:55:47.891Z,220.75
2019-01-27T15:58:17.526Z,407.88
2019-01-27T16:00:47.291Z,127.40
2019-01-27T16:03:17.155Z,224.98
2019-01-27T16:05:46.709Z,131.22
2019-01-27T16:08:16.259Z,112.77
2019-01-27T16:10:45.797Z,96.80
2019-01-27T16:13:15.310Z,119.75
2019-01-27T16:15:44.774Z,107.97
2019-01-27T16:18:14.330Z,118.30
2019-01-27T16:20:44.012Z,107.75
2019-01-27T16:23:31.236Z,128.60
2019-01-27T16:26:01.922Z,172.43
2019-01-27T16:28:31.421Z,183.00
2019-01-27T16:31:28.980Z,120.22
2019-01-27T16:34:03.552Z,117.08
2019-01-27T16:36:33.240Z,97.50
2019-01-27T16:39:02.731Z,96.92
2019-01-27T16:41:32.221Z,108.87
2019-01-27T16:44:01.752Z,98.43
2019-01-27T16:46:31.197Z,93.75
2019-01-27T16:49:00.689Z,91.65
2019-01-27T16:51:30.512Z,110.48
2019-01-27T16:53:59.989Z,122.07
2019-01-27T16:56:29.428Z,99.83
2019-01-27T16:58:59.478Z,101.27
2019-01-27T17:01:29.000Z,95.77
2019-01-27T17:03:58.423Z,160.78
2019-01-27T17:06:28.070Z,187.50
2019-01-27T17:08:58.277Z,178.23
2019-01-27T17:11:27.986Z,126.15
2019-01-27T17:13:57.413Z,133.12
2019-01-27T17:16:26.927Z,237.00
2019-01-27T17:18:56.438Z,590.40
2019-01-27T17:21:25.872Z,492.70
2019-01-27T17:23:55.336Z,330.15
2019-01-27T17:26:24.777Z,306.70
2019-01-27T17:28:54.282Z,179.47
2019-01-27T17:31:23.770Z,445.95
2019-01-27T17:33:53.259Z,336.43
2019-01-27T17:36:23.055Z,252.67
2019-01-27T17:38:52.531Z,113.57
2019-01-27T17:41:21.969Z,194.72
2019-01-27T17:43:51.667Z,351.02
2019-01-27T17:46:21.159Z,84.97
2019-01-27T17:48:50.631Z,84.05
2019-01-27T17:51:20.612Z,242.10
2019-01-27T17:53:59.484Z,117.25
2019-01-27T17:56:28.893Z,73.67
2019-01-27T17:59:24.035Z,79.27
2019-01-27T18:02:22.603Z,92.30
2019-01-27T18:05:09.955Z,78.02
2019-01-27T18:08:04.256Z,82.40
2019-01-27T18:10:39.011Z,128.42
2019-01-27T18:13:21.901Z,118.87
2019-01-27T18:15:51.336Z,106.30
2019-01-27T18:18:20.784Z,609.67
2019-01-27T18:20:50.487Z,1187.60
2019-01-27T18:23:20.008Z,515.73
2019-01-27T18:25:49.635Z,679.70
2019-01-27T18:28:19.070Z,86.80
2019-01-27T18:30:50.328Z,85.35
2019-01-27T18:33:19.898Z,89.05
2019-01-27T18:35:49.351Z,186.67
2019-01-27T18:38:18.908Z,88.67
2019-01-27T18:40:48.339Z,85.32
2019-01-27T18:43:18.034Z,88.27
2019-01-27T18:45:47.456Z,78.10
2019-01-27T18:48:17.030Z,84.07
2019-01-27T18:50:46.582Z,78.20
2019-01-27T18:53:40.992Z,83.62
2019-01-27T18:56:33.056Z,89.40
2019-01-27T18:59:18.405Z,87.20
2019-01-27T19:02:09.629Z,81.40
2019-01-27T19:04:43.860Z,101.85
2019-01-27T19:07:30.282Z,67.82
2019-01-27T19:10:24.589Z,146.45
2019-01-27T19:13:14.242Z,85.05
2019-01-27T19:16:08.494Z,97.92
2019-01-27T19:18:58.408Z,104.80
2019-01-27T19:21:55.917Z,115.45
2019-01-27T19:24:44.354Z,91.95
2019-01-27T19:27:35.502Z,104.93
2019-01-27T19:30:36.492Z,62.23
2019-01-27T19:33:30.955Z,66.33
2019-01-27T19:36:19.081Z,74.60
2019-01-27T19:39:16.278Z,103.43
2019-01-27T19:42:02.237Z,112.40
2019-01-27T19:44:49.457Z,63.52
2019-01-27T19:47:38.079Z,120.35
2019-01-27T19:50:28.280Z,98.90
2019-01-27T19:53:15.270Z,72.72
2019-01-27T19:56:01.061Z,161.60
2019-01-27T19:58:50.894Z,120.53
2019-01-27T20:01:39.330Z,93.78
2019-01-27T20:04:27.573Z,65.50
2019-01-27T20:07:34.306Z,140.60
2019-01-27T20:10:21.750Z,86.37
2019-01-27T20:13:08.972Z,102.50
2019-01-27T20:15:48.824Z,112.83
2019-01-27T20:18:38.396Z,81.97
2019-01-27T20:21:27.196Z,114.12
2019-01-27T20:24:10.469Z,140.37
2019-01-27T20:27:01.992Z,146.55
2019-01-27T20:29:59.926Z,86.50
2019-01-27T20:32:51.340Z,78.22
2019-01-27T20:35:38.548Z,80.15
2019-01-27T20:38:29.928Z,67.00
2019-01-27T20:41:17.680Z,62.93
2019-01-27T20:43:53.541Z,187.68
2019-01-27T20:46:54.228Z,64.32
2019-01-27T20:49:36.063Z,83.42
2019-01-27T20:52:18.185Z,57.62
2019-01-27T20:55:10.191Z,66.07
2019-01-27T20:57:52.285Z,81.63
2019-01-27T21:00:43.295Z,156.80
2019-01-27T21:03:21.696Z,92.75
2019-01-27T21:05:57.308Z,81.25
2019-01-27T21:08:32.633Z,90.10
2019-01-27T21:11:11.749Z,187.75
2019-01-27T21:14:00.345Z,545.62
2019-01-27T21:16:36.243Z,76.62
2019-01-27T21:19:19.323Z,69.55
2019-01-27T21:21:48.831Z,89.40
2019-01-27T21:24:18.565Z,85.10
2019-01-27T21:26:48.004Z,84.65
2019-01-27T21:29:17.481Z,67.85
2019-01-27T21:31:47.276Z,78.65
2019-01-27T21:34:16.695Z,95.72
2019-01-27T21:36:46.214Z,189.50
2019-01-27T21:39:15.852Z,137.57
2019-01-27T21:41:45.475Z,76.37
2019-01-27T21:44:15.214Z,65.17
2019-01-27T21:46:44.748Z,63.85
2019-01-27T21:49:14.157Z,94.25
2019-01-27T21:51:43.618Z,104.10
2019-01-27T21:54:13.016Z,64.80
2019-01-27T21:56:42.559Z,85.65
2019-01-27T21:59:12.000Z,143.72
2019-01-27T22:01:41.459Z,199.27
2019-01-27T22:04:11.096Z,62.15
2019-01-27T22:06:41.764Z,69.65
2019-01-27T22:09:11.476Z,76.95
2019-01-27T22:11:40.939Z,82.95
2019-01-27T22:14:10.421Z,60.00
2019-01-27T22:16:40.225Z,80.50
2019-01-27T22:19:09.644Z,154.47
2019-01-27T22:21:39.066Z,173.65
2019-01-27T22:24:08.520Z,53.90
2019-01-27T22:26:37.995Z,69.58
2019-01-27T22:29:07.475Z,71.53
2019-01-27T22:31:36.943Z,143.82
2019-01-27T22:34:06.599Z,149.90
2019-01-27T22:36:36.078Z,119.33
2019-01-27T22:39:08.813Z,116.20
2019-01-27T22:41:38.337Z,81.00
2019-01-27T22:44:07.808Z,78.87
2019-01-27T22:46:37.745Z,90.07
2019-01-27T22:49:07.223Z,73.45
2019-01-27T22:51:36.923Z,62.85
2019-01-27T22:54:06.427Z,181.52
2019-01-27T22:56:35.922Z,111.80
2019-01-27T22:59:05.692Z,71.22
2019-01-27T23:01:35.252Z,81.97
2019-01-27T23:04:06.937Z,270.37
2019-01-27T23:06:36.507Z,210.73
2019-01-27T23:09:14.688Z,69.25
2019-01-27T23:11:44.109Z,85.38
2019-01-27T23:14:13.670Z,135.60
2019-01-27T23:16:43.146Z,75.27
2019-01-27T23:19:12.565Z,172.75
2019-01-27T23:21:42.075Z,72.20
2019-01-27T23:24:11.541Z,296.07
2019-01-27T23:26:40.988Z,113.95
2019-01-27T23:29:10.424Z,264.55
2019-01-27T23:31:39.903Z,286.23
2019-01-27T23:34:09.425Z,238.15
2019-01-27T23:36:38.853Z,170.97
2019-01-27T23:39:10.863Z,60.33
2019-01-27T23:41:40.583Z,378.50
2019-01-27T23:44:10.216Z,246.10
2019-01-27T23:46:41.154Z,476.90
2019-01-27T23:49:10.583Z,63.15
2019-01-27T23:51:40.076Z,68.13
2019-01-27T23:54:09.511Z,59.77
2019-01-27T23:56:39.233Z,75.08
2019-01-27T23:59:08.643Z,171.60
